sensor_id;sensor_type;location;lat;lon;timestamp;P1;durP1;ratioP1;P2;durP2;ratioP2
77598;SDS011;66758;52.078;5.070;2023-11-18T00:02:16;32.27;;;16.93;;
77598;SDS011;66758;52.078;5.070;2023-11-18T00:04:42;33.40;;;17.37;;
77598;SDS011;66758;52.078;5.070;2023-11-18T00:07:07;32.73;;;18.17;;
77598;SDS011;66758;52.078;5.070;2023-11-18T00:09:32;37.13;;;18.90;;
77598;SDS011;66758;52.078;5.070;2023-11-18T00:11:57;36.77;;;17.93;;
77598;SDS011;66758;52.078;5.070;2023-11-18T00:14:23;32.57;;;17.33;;
77598;SDS011;66758;52.078;5.070;2023-11-18T00:16:48;30.40;;;16.65;;
77598;SDS011;66758;52.078;5.070;2023-11-18T00:19:13;35.60;;;16.47;;
77598;SDS011;66758;52.078;5.070;2023-11-18T00:21:39;32.53;;;16.00;;
77598;SDS011;66758;52.078;5.070;2023-11-18T00:24:04;32.77;;;16.17;;
77598;SDS011;66758;52.078;5.070;2023-11-18T00:26:30;30.15;;;16.05;;
77598;SDS011;66758;52.078;5.070;2023-11-18T00:28:55;34.97;;;18.40;;
77598;SDS011;66758;52.078;5.070;2023-11-18T00:31:20;34.00;;;16.70;;
77598;SDS011;66758;52.078;5.070;2023-11-18T00:33:46;31.47;;;16.17;;
77598;SDS011;66758;52.078;5.070;2023-11-18T00:36:11;34.23;;;16.77;;
77598;SDS011;66758;52.078;5.070;2023-11-18T00:38:36;30.90;;;14.97;;
77598;SDS011;66758;52.078;5.070;2023-11-18T00:41:02;31.10;;;16.20;;
77598;SDS011;66758;52.078;5.070;2023-11-18T00:43:27;33.10;;;17.33;;
77598;SDS011;66758;52.078;5.070;2023-11-18T00:45:52;34.07;;;17.43;;
77598;SDS011;66758;52.078;5.070;2023-11-18T00:48:18;29.93;;;16.67;;
77598;SDS011;66758;52.078;5.070;2023-11-18T00:50:43;31.73;;;17.63;;
77598;SDS011;66758;52.078;5.070;2023-11-18T00:53:08;30.80;;;17.33;;
77598;SDS011;66758;52.078;5.070;2023-11-18T00:55:35;29.30;;;16.10;;
77598;SDS011;66758;52.078;5.070;2023-11-18T00:58:00;28.07;;;15.57;;
77598;SDS011;66758;52.078;5.070;2023-11-18T01:00:25;34.83;;;16.47;;
77598;SDS011;66758;52.078;5.070;2023-11-18T01:02:51;34.45;;;17.02;;
77598;SDS011;66758;52.078;5.070;2023-11-18T01:05:18;31.75;;;16.30;;
77598;SDS011;66758;52.078;5.070;2023-11-18T01:07:43;32.83;;;17.73;;
77598;SDS011;66758;52.078;5.070;2023-11-18T01:10:09;30.20;;;16.50;;
77598;SDS011;66758;52.078;5.070;2023-11-18T01:12:35;29.70;;;16.48;;
77598;SDS011;66758;52.078;5.070;2023-11-18T01:15:00;32.60;;;17.80;;
77598;SDS011;66758;52.078;5.070;2023-11-18T01:17:25;28.70;;;16.27;;
77598;SDS011;66758;52.078;5.070;2023-11-18T01:19:51;30.90;;;16.60;;
77598;SDS011;66758;52.078;5.070;2023-11-18T01:22:16;28.52;;;16.15;;
77598;SDS011;66758;52.078;5.070;2023-11-18T01:24:43;29.83;;;15.77;;
77598;SDS011;66758;52.078;5.070;2023-11-18T01:27:09;32.63;;;18.38;;
77598;SDS011;66758;52.078;5.070;2023-11-18T01:29:35;34.27;;;17.93;;
77598;SDS011;66758;52.078;5.070;2023-11-18T01:32:00;36.13;;;19.33;;
77598;SDS011;66758;52.078;5.070;2023-11-18T01:34:26;31.00;;;18.30;;
77598;SDS011;66758;52.078;5.070;2023-11-18T01:36:53;33.20;;;18.17;;
77598;SDS011;66758;52.078;5.070;2023-11-18T01:39:18;31.53;;;17.23;;
77598;SDS011;66758;52.078;5.070;2023-11-18T01:41:44;30.70;;;17.93;;
77598;SDS011;66758;52.078;5.070;2023-11-18T01:44:09;32.83;;;17.13;;
77598;SDS011;66758;52.078;5.070;2023-11-18T01:46:35;26.47;;;15.23;;
77598;SDS011;66758;52.078;5.070;2023-11-18T01:49:01;32.57;;;17.27;;
77598;SDS011;66758;52.078;5.070;2023-11-18T01:51:28;28.52;;;15.02;;
77598;SDS011;66758;52.078;5.070;2023-11-18T01:53:53;29.67;;;15.07;;
77598;SDS011;66758;52.078;5.070;2023-11-18T01:56:19;26.58;;;15.50;;
77598;SDS011;66758;52.078;5.070;2023-11-18T01:58:46;29.88;;;16.45;;
77598;SDS011;66758;52.078;5.070;2023-11-18T02:01:11;31.10;;;17.03;;
77598;SDS011;66758;52.078;5.070;2023-11-18T02:03:48;30.17;;;15.35;;
77598;SDS011;66758;52.078;5.070;2023-11-18T02:06:14;28.98;;;15.50;;
77598;SDS011;66758;52.078;5.070;2023-11-18T02:08:40;29.40;;;16.53;;
77598;SDS011;66758;52.078;5.070;2023-11-18T02:13:50;30.15;;;15.32;;
77598;SDS011;66758;52.078;5.070;2023-11-18T02:16:18;31.73;;;16.08;;
77598;SDS011;66758;52.078;5.070;2023-11-18T02:18:44;24.90;;;15.10;;
77598;SDS011;66758;52.078;5.070;2023-11-18T02:21:10;29.33;;;15.13;;
77598;SDS011;66758;52.078;5.070;2023-11-18T02:23:37;25.30;;;15.43;;
77598;SDS011;66758;52.078;5.070;2023-11-18T02:26:02;32.33;;;15.85;;
77598;SDS011;66758;52.078;5.070;2023-11-18T02:28:27;26.83;;;15.60;;
77598;SDS011;66758;52.078;5.070;2023-11-18T02:31:12;27.43;;;15.53;;
77598;SDS011;66758;52.078;5.070;2023-11-18T02:33:43;28.52;;;15.00;;
77598;SDS011;66758;52.078;5.070;2023-11-18T02:36:10;28.45;;;14.45;;
77598;SDS011;66758;52.078;5.070;2023-11-18T02:38:39;26.58;;;14.73;;
77598;SDS011;66758;52.078;5.070;2023-11-18T02:41:10;27.60;;;15.23;;
77598;SDS011;66758;52.078;5.070;2023-11-18T02:43:37;22.17;;;14.50;;
77598;SDS011;66758;52.078;5.070;2023-11-18T02:46:04;26.10;;;16.15;;
77598;SDS011;66758;52.078;5.070;2023-11-18T02:48:31;30.45;;;17.20;;
77598;SDS011;66758;52.078;5.070;2023-11-18T02:50:57;36.13;;;16.87;;
77598;SDS011;66758;52.078;5.070;2023-11-18T02:53:23;26.70;;;15.05;;
77598;SDS011;66758;52.078;5.070;2023-11-18T02:55:49;32.05;;;16.95;;
77598;SDS011;66758;52.078;5.070;2023-11-18T02:58:17;29.43;;;16.63;;
77598;SDS011;66758;52.078;5.070;2023-11-18T03:00:42;30.42;;;17.55;;
77598;SDS011;66758;52.078;5.070;2023-11-18T03:03:09;29.90;;;17.02;;
77598;SDS011;66758;52.078;5.070;2023-11-18T03:05:35;28.33;;;17.43;;
77598;SDS011;66758;52.078;5.070;2023-11-18T03:08:01;32.72;;;17.70;;
77598;SDS011;66758;52.078;5.070;2023-11-18T03:10:26;37.30;;;18.97;;
77598;SDS011;66758;52.078;5.070;2023-11-18T03:12:53;31.00;;;17.87;;
77598;SDS011;66758;52.078;5.070;2023-11-18T03:15:19;33.25;;;19.77;;
77598;SDS011;66758;52.078;5.070;2023-11-18T03:17:48;31.10;;;18.50;;
77598;SDS011;66758;52.078;5.070;2023-11-18T03:20:18;32.15;;;18.92;;
77598;SDS011;66758;52.078;5.070;2023-11-18T03:22:44;34.17;;;17.73;;
77598;SDS011;66758;52.078;5.070;2023-11-18T03:25:10;31.17;;;17.50;;
77598;SDS011;66758;52.078;5.070;2023-11-18T03:27:35;29.40;;;17.13;;
77598;SDS011;66758;52.078;5.070;2023-11-18T03:30:01;30.43;;;16.60;;
77598;SDS011;66758;52.078;5.070;2023-11-18T03:32:26;27.97;;;15.63;;
77598;SDS011;66758;52.078;5.070;2023-11-18T03:34:51;28.52;;;16.27;;
77598;SDS011;66758;52.078;5.070;2023-11-18T03:37:17;32.63;;;16.00;;
77598;SDS011;66758;52.078;5.070;2023-11-18T03:39:42;29.53;;;17.03;;
77598;SDS011;66758;52.078;5.070;2023-11-18T03:42:07;29.50;;;18.30;;
77598;SDS011;66758;52.078;5.070;2023-11-18T03:44:33;31.47;;;17.90;;
77598;SDS011;66758;52.078;5.070;2023-11-18T03:46:58;32.72;;;17.65;;
77598;SDS011;66758;52.078;5.070;2023-11-18T03:49:24;29.53;;;18.07;;
77598;SDS011;66758;52.078;5.070;2023-11-18T03:51:49;33.20;;;18.53;;
77598;SDS011;66758;52.078;5.070;2023-11-18T03:54:15;32.20;;;16.33;;
77598;SDS011;66758;52.078;5.070;2023-11-18T03:56:40;34.55;;;18.05;;
77598;SDS011;66758;52.078;5.070;2023-11-18T03:59:06;31.90;;;19.17;;
77598;SDS011;66758;52.078;5.070;2023-11-18T04:01:32;34.30;;;19.80;;
77598;SDS011;66758;52.078;5.070;2023-11-18T04:03:57;30.83;;;18.02;;
77598;SDS011;66758;52.078;5.070;2023-11-18T04:06:23;32.60;;;18.17;;
77598;SDS011;66758;52.078;5.070;2023-11-18T04:08:49;30.55;;;17.42;;
77598;SDS011;66758;52.078;5.070;2023-11-18T04:11:14;36.50;;;19.63;;
77598;SDS011;66758;52.078;5.070;2023-11-18T04:13:43;30.40;;;18.33;;
77598;SDS011;66758;52.078;5.070;2023-11-18T04:16:11;33.30;;;17.55;;
77598;SDS011;66758;52.078;5.070;2023-11-18T04:18:44;35.10;;;18.42;;
77598;SDS011;66758;52.078;5.070;2023-11-18T04:21:09;30.07;;;16.77;;
77598;SDS011;66758;52.078;5.070;2023-11-18T04:23:39;28.55;;;16.30;;
77598;SDS011;66758;52.078;5.070;2023-11-18T04:26:04;32.55;;;16.00;;
77598;SDS011;66758;52.078;5.070;2023-11-18T04:28:30;28.63;;;15.70;;
77598;SDS011;66758;52.078;5.070;2023-11-18T04:30:55;27.70;;;15.73;;
77598;SDS011;66758;52.078;5.070;2023-11-18T04:33:21;30.63;;;16.03;;
77598;SDS011;66758;52.078;5.070;2023-11-18T04:35:46;32.22;;;15.00;;
77598;SDS011;66758;52.078;5.070;2023-11-18T04:38:11;27.87;;;15.70;;
77598;SDS011;66758;52.078;5.070;2023-11-18T04:40:37;26.60;;;14.80;;
77598;SDS011;66758;52.078;5.070;2023-11-18T04:43:03;23.13;;;12.23;;
77598;SDS011;66758;52.078;5.070;2023-11-18T04:45:29;27.57;;;14.60;;
77598;SDS011;66758;52.078;5.070;2023-11-18T04:47:55;28.27;;;15.43;;
77598;SDS011;66758;52.078;5.070;2023-11-18T04:50:20;31.37;;;14.30;;
77598;SDS011;66758;52.078;5.070;2023-11-18T04:52:46;23.92;;;14.13;;
77598;SDS011;66758;52.078;5.070;2023-11-18T04:55:11;29.20;;;16.83;;
77598;SDS011;66758;52.078;5.070;2023-11-18T04:57:38;27.75;;;14.25;;
77598;SDS011;66758;52.078;5.070;2023-11-18T05:00:04;27.17;;;13.53;;
77598;SDS011;66758;52.078;5.070;2023-11-18T05:02:35;27.85;;;14.60;;
77598;SDS011;66758;52.078;5.070;2023-11-18T05:05:01;27.30;;;14.30;;
77598;SDS011;66758;52.078;5.070;2023-11-18T05:07:26;29.47;;;14.90;;
77598;SDS011;66758;52.078;5.070;2023-11-18T05:09:53;27.75;;;14.43;;
77598;SDS011;66758;52.078;5.070;2023-11-18T05:12:19;24.58;;;12.68;;
77598;SDS011;66758;52.078;5.070;2023-11-18T05:14:44;34.93;;;13.90;;
77598;SDS011;66758;52.078;5.070;2023-11-18T05:17:10;26.77;;;13.57;;
77598;SDS011;66758;52.078;5.070;2023-11-18T05:19:35;33.47;;;14.00;;
77598;SDS011;66758;52.078;5.070;2023-11-18T05:22:01;29.40;;;14.70;;
77598;SDS011;66758;52.078;5.070;2023-11-18T05:24:26;33.37;;;17.00;;
77598;SDS011;66758;52.078;5.070;2023-11-18T05:26:52;33.90;;;15.07;;
77598;SDS011;66758;52.078;5.070;2023-11-18T05:29:17;26.33;;;14.37;;
77598;SDS011;66758;52.078;5.070;2023-11-18T05:31:42;33.73;;;14.67;;
77598;SDS011;66758;52.078;5.070;2023-11-18T05:34:08;31.05;;;16.30;;
77598;SDS011;66758;52.078;5.070;2023-11-18T05:36:34;28.53;;;14.40;;
77598;SDS011;66758;52.078;5.070;2023-11-18T05:39:02;34.22;;;16.33;;
77598;SDS011;66758;52.078;5.070;2023-11-18T05:41:28;33.17;;;16.07;;
77598;SDS011;66758;52.078;5.070;2023-11-18T05:43:55;35.30;;;15.70;;
77598;SDS011;66758;52.078;5.070;2023-11-18T05:46:23;34.88;;;15.73;;
77598;SDS011;66758;52.078;5.070;2023-11-18T05:48:54;26.77;;;14.00;;
77598;SDS011;66758;52.078;5.070;2023-11-18T05:51:24;29.02;;;14.73;;
77598;SDS011;66758;52.078;5.070;2023-11-18T05:53:50;27.53;;;14.13;;
77598;SDS011;66758;52.078;5.070;2023-11-18T05:56:16;31.73;;;15.00;;
77598;SDS011;66758;52.078;5.070;2023-11-18T05:58:42;28.67;;;14.57;;
77598;SDS011;66758;52.078;5.070;2023-11-18T06:01:08;31.98;;;15.63;;
77598;SDS011;66758;52.078;5.070;2023-11-18T06:03:36;33.75;;;15.18;;
77598;SDS011;66758;52.078;5.070;2023-11-18T06:06:04;31.95;;;15.30;;
77598;SDS011;66758;52.078;5.070;2023-11-18T06:08:31;34.50;;;15.75;;
77598;SDS011;66758;52.078;5.070;2023-11-18T06:10:57;32.13;;;15.33;;
77598;SDS011;66758;52.078;5.070;2023-11-18T06:13:22;35.07;;;15.27;;
77598;SDS011;66758;52.078;5.070;2023-11-18T06:15:48;35.75;;;16.05;;
77598;SDS011;66758;52.078;5.070;2023-11-18T06:18:17;35.75;;;16.30;;
77598;SDS011;66758;52.078;5.070;2023-11-18T06:20:43;34.03;;;15.25;;
77598;SDS011;66758;52.078;5.070;2023-11-18T06:23:08;25.90;;;13.17;;
77598;SDS011;66758;52.078;5.070;2023-11-18T06:25:34;30.90;;;13.80;;
77598;SDS011;66758;52.078;5.070;2023-11-18T06:28:00;31.35;;;15.07;;
77598;SDS011;66758;52.078;5.070;2023-11-18T06:30:25;31.33;;;15.50;;
77598;SDS011;66758;52.078;5.070;2023-11-18T06:32:51;28.70;;;14.50;;
77598;SDS011;66758;52.078;5.070;2023-11-18T06:35:16;33.97;;;14.83;;
77598;SDS011;66758;52.078;5.070;2023-11-18T06:37:41;39.40;;;16.17;;
77598;SDS011;66758;52.078;5.070;2023-11-18T06:40:07;32.58;;;14.88;;
77598;SDS011;66758;52.078;5.070;2023-11-18T06:42:41;32.85;;;15.95;;
77598;SDS011;66758;52.078;5.070;2023-11-18T06:45:07;32.10;;;14.40;;
77598;SDS011;66758;52.078;5.070;2023-11-18T06:47:35;30.60;;;15.13;;
77598;SDS011;66758;52.078;5.070;2023-11-18T06:50:01;32.10;;;16.10;;
77598;SDS011;66758;52.078;5.070;2023-11-18T06:52:26;33.03;;;15.40;;
77598;SDS011;66758;52.078;5.070;2023-11-18T06:54:51;33.60;;;14.43;;
77598;SDS011;66758;52.078;5.070;2023-11-18T06:57:18;29.08;;;14.73;;
77598;SDS011;66758;52.078;5.070;2023-11-18T06:59:43;36.80;;;16.70;;
77598;SDS011;66758;52.078;5.070;2023-11-18T07:02:08;30.63;;;14.23;;
77598;SDS011;66758;52.078;5.070;2023-11-18T07:04:35;28.33;;;14.25;;
77598;SDS011;66758;52.078;5.070;2023-11-18T07:07:01;30.63;;;15.47;;
77598;SDS011;66758;52.078;5.070;2023-11-18T07:09:26;30.30;;;15.07;;
77598;SDS011;66758;52.078;5.070;2023-11-18T07:11:52;32.70;;;15.77;;
77598;SDS011;66758;52.078;5.070;2023-11-18T07:14:18;29.77;;;15.60;;
77598;SDS011;66758;52.078;5.070;2023-11-18T07:16:43;28.03;;;15.53;;
77598;SDS011;66758;52.078;5.070;2023-11-18T07:19:09;23.70;;;13.80;;
77598;SDS011;66758;52.078;5.070;2023-11-18T07:21:40;28.10;;;14.43;;
77598;SDS011;66758;52.078;5.070;2023-11-18T07:24:05;28.00;;;14.80;;
77598;SDS011;66758;52.078;5.070;2023-11-18T07:26:31;28.67;;;15.38;;
77598;SDS011;66758;52.078;5.070;2023-11-18T07:28:57;28.60;;;14.57;;
77598;SDS011;66758;52.078;5.070;2023-11-18T07:31:22;23.13;;;13.40;;
77598;SDS011;66758;52.078;5.070;2023-11-18T07:33:47;27.63;;;13.80;;
77598;SDS011;66758;52.078;5.070;2023-11-18T07:36:17;27.27;;;13.70;;
77598;SDS011;66758;52.078;5.070;2023-11-18T07:38:45;32.75;;;14.02;;
77598;SDS011;66758;52.078;5.070;2023-11-18T07:41:10;24.43;;;13.13;;
77598;SDS011;66758;52.078;5.070;2023-11-18T07:43:48;28.10;;;14.90;;
77598;SDS011;66758;52.078;5.070;2023-11-18T07:46:13;30.93;;;14.23;;
77598;SDS011;66758;52.078;5.070;2023-11-18T07:48:38;28.03;;;15.93;;
77598;SDS011;66758;52.078;5.070;2023-11-18T07:51:04;26.83;;;14.67;;
77598;SDS011;66758;52.078;5.070;2023-11-18T07:53:29;38.15;;;18.25;;
77598;SDS011;66758;52.078;5.070;2023-11-18T07:55:55;31.83;;;16.00;;
77598;SDS011;66758;52.078;5.070;2023-11-18T07:58:20;34.73;;;17.23;;
77598;SDS011;66758;52.078;5.070;2023-11-18T08:00:48;33.38;;;17.85;;
77598;SDS011;66758;52.078;5.070;2023-11-18T08:03:14;33.03;;;17.08;;
77598;SDS011;66758;52.078;5.070;2023-11-18T08:05:40;35.23;;;16.73;;
77598;SDS011;66758;52.078;5.070;2023-11-18T08:08:06;37.53;;;17.27;;
77598;SDS011;66758;52.078;5.070;2023-11-18T08:10:32;28.93;;;15.47;;
77598;SDS011;66758;52.078;5.070;2023-11-18T08:12:58;32.97;;;15.25;;
77598;SDS011;66758;52.078;5.070;2023-11-18T08:15:23;29.93;;;16.50;;
77598;SDS011;66758;52.078;5.070;2023-11-18T08:17:50;30.15;;;15.68;;
77598;SDS011;66758;52.078;5.070;2023-11-18T08:20:16;35.10;;;17.17;;
77598;SDS011;66758;52.078;5.070;2023-11-18T08:22:41;35.43;;;15.83;;
77598;SDS011;66758;52.078;5.070;2023-11-18T08:25:09;29.33;;;14.60;;
77598;SDS011;66758;52.078;5.070;2023-11-18T08:27:35;32.35;;;16.55;;
77598;SDS011;66758;52.078;5.070;2023-11-18T08:30:00;39.80;;;17.17;;
77598;SDS011;66758;52.078;5.070;2023-11-18T08:32:26;36.33;;;16.87;;
77598;SDS011;66758;52.078;5.070;2023-11-18T08:34:51;32.23;;;15.73;;
77598;SDS011;66758;52.078;5.070;2023-11-18T08:37:16;30.80;;;13.73;;
77598;SDS011;66758;52.078;5.070;2023-11-18T08:39:42;32.93;;;15.63;;
77598;SDS011;66758;52.078;5.070;2023-11-18T08:42:07;28.47;;;15.27;;
77598;SDS011;66758;52.078;5.070;2023-11-18T08:44:33;29.08;;;14.73;;
77598;SDS011;66758;52.078;5.070;2023-11-18T08:46:58;26.07;;;14.37;;
77598;SDS011;66758;52.078;5.070;2023-11-18T08:49:24;27.37;;;13.17;;
77598;SDS011;66758;52.078;5.070;2023-11-18T08:51:50;29.13;;;13.63;;
77598;SDS011;66758;52.078;5.070;2023-11-18T08:54:21;22.75;;;12.15;;
77598;SDS011;66758;52.078;5.070;2023-11-18T08:56:53;24.65;;;11.98;;
77598;SDS011;66758;52.078;5.070;2023-11-18T08:59:22;23.70;;;11.52;;
77598;SDS011;66758;52.078;5.070;2023-11-18T09:01:56;23.83;;;11.90;;
77598;SDS011;66758;52.078;5.070;2023-11-18T09:04:24;20.23;;;11.13;;
77598;SDS011;66758;52.078;5.070;2023-11-18T09:06:49;25.10;;;12.30;;
77598;SDS011;66758;52.078;5.070;2023-11-18T09:09:18;24.83;;;11.02;;
77598;SDS011;66758;52.078;5.070;2023-11-18T09:11:51;15.75;;;7.57;;
77598;SDS011;66758;52.078;5.070;2023-11-18T09:14:16;19.80;;;9.73;;
77598;SDS011;66758;52.078;5.070;2023-11-18T09:16:42;18.20;;;8.20;;
77598;SDS011;66758;52.078;5.070;2023-11-18T09:19:09;18.25;;;9.32;;
77598;SDS011;66758;52.078;5.070;2023-11-18T09:21:36;18.90;;;10.23;;
77598;SDS011;66758;52.078;5.070;2023-11-18T09:24:02;22.55;;;10.13;;
77598;SDS011;66758;52.078;5.070;2023-11-18T09:26:33;20.95;;;8.23;;
77598;SDS011;66758;52.078;5.070;2023-11-18T09:28:58;17.40;;;8.00;;
77598;SDS011;66758;52.078;5.070;2023-11-18T09:31:26;16.73;;;7.63;;
77598;SDS011;66758;52.078;5.070;2023-11-18T09:33:52;19.53;;;8.13;;
77598;SDS011;66758;52.078;5.070;2023-11-18T09:36:18;19.52;;;8.68;;
77598;SDS011;66758;52.078;5.070;2023-11-18T09:38:44;18.70;;;9.13;;
77598;SDS011;66758;52.078;5.070;2023-11-18T09:41:11;21.50;;;9.23;;
77598;SDS011;66758;52.078;5.070;2023-11-18T09:43:37;17.25;;;8.95;;
77598;SDS011;66758;52.078;5.070;2023-11-18T09:48:50;19.40;;;8.52;;
77598;SDS011;66758;52.078;5.070;2023-11-18T09:51:25;18.27;;;7.57;;
77598;SDS011;66758;52.078;5.070;2023-11-18T09:53:55;18.10;;;7.45;;
77598;SDS011;66758;52.078;5.070;2023-11-18T09:56:34;13.43;;;6.90;;
77598;SDS011;66758;52.078;5.070;2023-11-18T09:59:52;12.50;;;6.68;;
77598;SDS011;66758;52.078;5.070;2023-11-18T10:01:59;13.73;;;6.40;;
77598;SDS011;66758;52.078;5.070;2023-11-18T10:04:27;16.17;;;7.10;;
77598;SDS011;66758;52.078;5.070;2023-11-18T10:06:53;13.07;;;6.40;;
77598;SDS011;66758;52.078;5.070;2023-11-18T10:09:19;16.20;;;5.75;;
77598;SDS011;66758;52.078;5.070;2023-11-18T10:11:53;12.65;;;5.00;;
77598;SDS011;66758;52.078;5.070;2023-11-18T10:14:25;11.73;;;5.20;;
77598;SDS011;66758;52.078;5.070;2023-11-18T10:16:51;17.20;;;7.03;;
77598;SDS011;66758;52.078;5.070;2023-11-18T10:19:19;11.98;;;5.50;;
77598;SDS011;66758;52.078;5.070;2023-11-18T10:21:44;13.07;;;4.40;;
77598;SDS011;66758;52.078;5.070;2023-11-18T10:24:13;12.93;;;4.88;;
77598;SDS011;66758;52.078;5.070;2023-11-18T10:26:44;12.15;;;5.25;;
77598;SDS011;66758;52.078;5.070;2023-11-18T10:29:10;13.95;;;5.22;;
77598;SDS011;66758;52.078;5.070;2023-11-18T10:31:38;11.03;;;4.47;;
77598;SDS011;66758;52.078;5.070;2023-11-18T10:34:10;12.40;;;4.85;;
77598;SDS011;66758;52.078;5.070;2023-11-18T10:36:36;11.88;;;4.18;;
77598;SDS011;66758;52.078;5.070;2023-11-18T10:39:02;9.47;;;4.73;;
77598;SDS011;66758;52.078;5.070;2023-11-18T10:41:40;11.57;;;5.22;;
77598;SDS011;66758;52.078;5.070;2023-11-18T10:44:11;12.75;;;5.10;;
77598;SDS011;66758;52.078;5.070;2023-11-18T10:46:52;10.50;;;4.32;;
77598;SDS011;66758;52.078;5.070;2023-11-18T10:49:23;11.03;;;4.80;;
77598;SDS011;66758;52.078;5.070;2023-11-18T10:51:50;11.38;;;5.30;;
77598;SDS011;66758;52.078;5.070;2023-11-18T10:54:16;12.43;;;6.25;;
77598;SDS011;66758;52.078;5.070;2023-11-18T10:56:48;14.33;;;6.20;;
77598;SDS011;66758;52.078;5.070;2023-11-18T10:59:15;12.00;;;5.57;;
77598;SDS011;66758;52.078;5.070;2023-11-18T11:01:43;11.20;;;5.40;;
77598;SDS011;66758;52.078;5.070;2023-11-18T11:04:09;18.00;;;5.00;;
77598;SDS011;66758;52.078;5.070;2023-11-18T11:06:42;10.80;;;5.05;;
77598;SDS011;66758;52.078;5.070;2023-11-18T11:09:08;16.57;;;5.17;;
77598;SDS011;66758;52.078;5.070;2023-11-18T11:11:49;13.60;;;5.70;;
77598;SDS011;66758;52.078;5.070;2023-11-18T11:14:14;11.57;;;4.97;;
77598;SDS011;66758;52.078;5.070;2023-11-18T11:16:44;13.90;;;5.63;;
77598;SDS011;66758;52.078;5.070;2023-11-18T11:19:20;10.80;;;5.88;;
77598;SDS011;66758;52.078;5.070;2023-11-18T11:21:59;13.63;;;6.87;;
77598;SDS011;66758;52.078;5.070;2023-11-18T11:24:35;17.38;;;7.55;;
77598;SDS011;66758;52.078;5.070;2023-11-18T11:27:14;18.13;;;5.93;;
77598;SDS011;66758;52.078;5.070;2023-11-18T11:29:54;14.95;;;5.97;;
77598;SDS011;66758;52.078;5.070;2023-11-18T11:32:30;18.48;;;5.43;;
77598;SDS011;66758;52.078;5.070;2023-11-18T11:35:00;14.50;;;6.00;;
77598;SDS011;66758;52.078;5.070;2023-11-18T11:37:32;12.52;;;4.72;;
77598;SDS011;66758;52.078;5.070;2023-11-18T11:40:01;13.98;;;6.05;;
77598;SDS011;66758;52.078;5.070;2023-11-18T11:42:31;17.40;;;5.90;;
77598;SDS011;66758;52.078;5.070;2023-11-18T11:44:56;11.73;;;4.10;;
77598;SDS011;66758;52.078;5.070;2023-11-18T11:47:23;13.17;;;5.30;;
77598;SDS011;66758;52.078;5.070;2023-11-18T11:49:59;10.90;;;4.95;;
77598;SDS011;66758;52.078;5.070;2023-11-18T11:52:32;15.23;;;5.70;;
77598;SDS011;66758;52.078;5.070;2023-11-18T11:57:28;10.80;;;4.47;;
77598;SDS011;66758;52.078;5.070;2023-11-18T12:02:20;8.48;;;4.25;;
77598;SDS011;66758;52.078;5.070;2023-11-18T12:04:49;13.27;;;6.05;;
77598;SDS011;66758;52.078;5.070;2023-11-18T12:07:35;8.03;;;3.53;;
77598;SDS011;66758;52.078;5.070;2023-11-18T12:10:07;13.38;;;5.20;;
77598;SDS011;66758;52.078;5.070;2023-11-18T12:12:33;11.48;;;5.57;;
77598;SDS011;66758;52.078;5.070;2023-11-18T12:14:59;10.87;;;5.10;;
77598;SDS011;66758;52.078;5.070;2023-11-18T12:23:05;15.93;;;6.82;;
77598;SDS011;66758;52.078;5.070;2023-11-18T12:25:39;12.63;;;5.70;;
77598;SDS011;66758;52.078;5.070;2023-11-18T12:28:16;14.57;;;5.87;;
77598;SDS011;66758;52.078;5.070;2023-11-18T12:30:46;11.88;;;5.10;;
77598;SDS011;66758;52.078;5.070;2023-11-18T12:33:18;12.03;;;5.07;;
77598;SDS011;66758;52.078;5.070;2023-11-18T12:35:54;12.23;;;4.53;;
77598;SDS011;66758;52.078;5.070;2023-11-18T12:41:00;12.00;;;4.43;;
77598;SDS011;66758;52.078;5.070;2023-11-18T12:48:32;9.50;;;3.50;;
77598;SDS011;66758;52.078;5.070;2023-11-18T12:51:01;9.80;;;3.85;;
77598;SDS011;66758;52.078;5.070;2023-11-18T12:53:27;7.77;;;3.97;;
77598;SDS011;66758;52.078;5.070;2023-11-18T12:55:53;6.90;;;3.57;;
77598;SDS011;66758;52.078;5.070;2023-11-18T12:58:20;8.05;;;2.78;;
77598;SDS011;66758;52.078;5.070;2023-11-18T13:00:45;7.67;;;3.60;;
77598;SDS011;66758;52.078;5.070;2023-11-18T13:03:11;10.43;;;4.20;;
77598;SDS011;66758;52.078;5.070;2023-11-18T13:05:40;6.78;;;2.60;;
77598;SDS011;66758;52.078;5.070;2023-11-18T13:08:05;7.00;;;3.30;;
77598;SDS011;66758;52.078;5.070;2023-11-18T13:10:32;7.30;;;3.15;;
77598;SDS011;66758;52.078;5.070;2023-11-18T13:12:57;8.73;;;2.92;;
77598;SDS011;66758;52.078;5.070;2023-11-18T13:15:23;6.70;;;2.67;;
77598;SDS011;66758;52.078;5.070;2023-11-18T13:18:05;5.38;;;2.30;;
77598;SDS011;66758;52.078;5.070;2023-11-18T13:20:34;5.82;;;2.00;;
77598;SDS011;66758;52.078;5.070;2023-11-18T13:23:02;7.83;;;3.17;;
77598;SDS011;66758;52.078;5.070;2023-11-18T13:25:34;4.13;;;2.35;;
77598;SDS011;66758;52.078;5.070;2023-11-18T13:27:59;6.55;;;1.67;;
77598;SDS011;66758;52.078;5.070;2023-11-18T13:30:24;6.17;;;2.73;;
77598;SDS011;66758;52.078;5.070;2023-11-18T13:32:49;4.03;;;1.97;;
77598;SDS011;66758;52.078;5.070;2023-11-18T13:35:16;7.43;;;3.80;;
77598;SDS011;66758;52.078;5.070;2023-11-18T13:37:46;6.63;;;3.00;;
77598;SDS011;66758;52.078;5.070;2023-11-18T13:40:13;5.07;;;3.00;;
77598;SDS011;66758;52.078;5.070;2023-11-18T13:42:38;5.00;;;2.57;;
77598;SDS011;66758;52.078;5.070;2023-11-18T13:45:05;4.70;;;2.35;;
77598;SDS011;66758;52.078;5.070;2023-11-18T13:47:36;5.25;;;1.95;;
77598;SDS011;66758;52.078;5.070;2023-11-18T13:50:05;5.30;;;3.20;;
77598;SDS011;66758;52.078;5.070;2023-11-18T13:52:38;5.50;;;2.17;;
77598;SDS011;66758;52.078;5.070;2023-11-18T13:55:05;5.70;;;2.27;;
77598;SDS011;66758;52.078;5.070;2023-11-18T13:57:31;5.13;;;3.13;;
77598;SDS011;66758;52.078;5.070;2023-11-18T13:59:57;5.57;;;3.00;;
77598;SDS011;66758;52.078;5.070;2023-11-18T14:02:24;5.03;;;2.10;;
77598;SDS011;66758;52.078;5.070;2023-11-18T14:04:49;6.68;;;3.28;;
77598;SDS011;66758;52.078;5.070;2023-11-18T14:07:15;5.53;;;2.30;;
77598;SDS011;66758;52.078;5.070;2023-11-18T14:09:42;5.22;;;2.70;;
77598;SDS011;66758;52.078;5.070;2023-11-18T14:12:10;5.60;;;2.22;;
77598;SDS011;66758;52.078;5.070;2023-11-18T14:14:36;6.05;;;3.28;;
77598;SDS011;66758;52.078;5.070;2023-11-18T14:17:02;5.13;;;3.30;;
77598;SDS011;66758;52.078;5.070;2023-11-18T14:19:28;7.03;;;3.20;;
77598;SDS011;66758;52.078;5.070;2023-11-18T14:21:54;5.93;;;2.83;;
77598;SDS011;66758;52.078;5.070;2023-11-18T14:24:19;5.55;;;3.00;;
77598;SDS011;66758;52.078;5.070;2023-11-18T14:26:48;5.15;;;2.63;;
77598;SDS011;66758;52.078;5.070;2023-11-18T14:29:13;4.03;;;2.00;;
77598;SDS011;66758;52.078;5.070;2023-11-18T14:31:38;3.53;;;1.73;;
77598;SDS011;66758;52.078;5.070;2023-11-18T14:34:04;3.60;;;2.28;;
77598;SDS011;66758;52.078;5.070;2023-11-18T14:36:30;3.33;;;2.03;;
77598;SDS011;66758;52.078;5.070;2023-11-18T14:38:55;3.47;;;2.28;;
77598;SDS011;66758;52.078;5.070;2023-11-18T14:41:21;4.67;;;2.63;;
77598;SDS011;66758;52.078;5.070;2023-11-18T14:43:51;4.15;;;2.20;;
77598;SDS011;66758;52.078;5.070;2023-11-18T14:46:16;3.87;;;2.20;;
77598;SDS011;66758;52.078;5.070;2023-11-18T14:48:41;4.60;;;2.50;;
77598;SDS011;66758;52.078;5.070;2023-11-18T14:51:07;4.28;;;2.38;;
77598;SDS011;66758;52.078;5.070;2023-11-18T14:53:33;5.17;;;2.70;;